createdAt,value
2018-03-20T09:50:35.283Z,34.80
2018-03-20T09:58:38.732Z,7.17
2018-03-20T10:01:04.755Z,4.10
2018-03-20T10:03:31.818Z,6.33
2018-03-20T10:05:57.870Z,6.60
2018-03-20T10:08:23.897Z,9.83
2018-03-20T10:10:49.927Z,3.50
2018-03-20T10:13:15.967Z,6.43
2018-03-20T10:15:42.770Z,4.07
2018-03-20T10:18:09.113Z,8.27
2018-03-20T10:20:35.135Z,4.70
2018-03-20T10:23:01.886Z,6.00
2018-03-20T10:25:27.939Z,6.90
2018-03-20T10:27:54.707Z,5.17
2018-03-20T10:30:20.722Z,3.90
2018-03-20T10:32:47.514Z,5.00
2018-03-20T10:35:13.555Z,5.80
2018-03-20T10:37:39.603Z,8.60
2018-03-20T10:40:05.623Z,6.80
2018-03-20T10:42:31.657Z,9.27
2018-03-20T10:44:57.715Z,4.73
2018-03-20T10:47:23.742Z,2.90
2018-03-20T10:49:49.767Z,6.13
2018-03-20T10:52:15.812Z,1.90
2018-03-20T10:54:41.851Z,6.07
2018-03-20T10:57:08.746Z,11.43
2018-03-20T10:59:34.757Z,3.70
2018-03-20T11:05:05.639Z,7.40
2018-03-20T11:07:31.690Z,8.60
2018-03-20T11:09:57.708Z,3.07
2018-03-20T11:12:23.750Z,3.87
2018-03-20T11:14:50.845Z,7.90
2018-03-20T11:17:17.615Z,5.10
2018-03-20T11:19:43.615Z,4.57
2018-03-20T11:22:09.975Z,5.37
2018-03-20T11:24:36.848Z,3.67
2018-03-20T11:27:02.855Z,9.83
2018-03-20T11:29:29.744Z,8.53
2018-03-20T11:31:55.774Z,5.67
2018-03-20T11:34:21.793Z,5.60
2018-03-20T11:36:47.844Z,3.20
2018-03-20T11:39:13.919Z,3.40
2018-03-20T11:41:39.948Z,4.00
2018-03-20T11:44:06.022Z,4.17
2018-03-20T11:46:32.051Z,5.43
2018-03-20T11:48:58.055Z,5.13
2018-03-20T11:51:24.083Z,6.90
2018-03-20T11:53:50.111Z,3.10
2018-03-20T11:56:16.150Z,6.87
2018-03-20T11:58:42.218Z,3.20
2018-03-20T12:01:08.355Z,5.53
2018-03-20T12:03:34.400Z,5.60
2018-03-20T12:06:00.450Z,6.07
2018-03-20T12:08:38.731Z,4.67
2018-03-20T12:11:04.817Z,1.33
2018-03-20T12:13:30.926Z,4.47
2018-03-20T12:15:56.975Z,4.00
2018-03-20T12:18:23.027Z,5.97
2018-03-20T12:20:49.067Z,3.73
2018-03-20T12:23:15.134Z,9.63
2018-03-20T12:25:41.157Z,5.00
2018-03-20T12:28:07.960Z,3.80
2018-03-20T12:30:34.029Z,3.13
2018-03-20T12:33:00.124Z,6.20
2018-03-20T12:35:26.175Z,1.83
2018-03-20T12:37:52.203Z,4.43
2018-03-20T12:40:18.264Z,5.20
2018-03-20T12:42:44.607Z,4.30
2018-03-20T12:45:10.615Z,1.80
2018-03-20T12:47:36.623Z,2.23
2018-03-20T12:50:03.389Z,3.60
2018-03-20T12:52:29.548Z,5.27
2018-03-20T12:54:55.582Z,3.83
2018-03-20T12:57:23.787Z,3.63
2018-03-20T12:59:49.835Z,3.10
2018-03-20T13:02:16.287Z,5.03
2018-03-20T13:04:42.403Z,3.10
2018-03-20T13:07:08.724Z,9.30
2018-03-20T13:09:34.746Z,4.27
2018-03-20T13:12:00.783Z,3.30
2018-03-20T13:14:26.836Z,4.37
2018-03-20T13:16:52.871Z,6.40
2018-03-20T13:19:18.991Z,8.93
2018-03-20T13:21:45.039Z,5.07
2018-03-20T13:24:11.163Z,6.97
2018-03-20T13:26:37.921Z,9.10
2018-03-20T13:29:06.484Z,5.33
2018-03-20T13:31:32.575Z,3.53
2018-03-20T13:33:58.647Z,4.67
2018-03-20T13:36:24.687Z,3.70
2018-03-20T13:38:50.698Z,2.73
2018-03-20T13:41:16.686Z,5.77
2018-03-20T13:43:42.731Z,5.53
2018-03-20T13:46:09.498Z,2.97
2018-03-20T13:48:35.553Z,9.00
2018-03-20T13:51:01.682Z,7.73
2018-03-20T13:53:27.710Z,5.40
2018-03-20T13:55:53.934Z,5.00
2018-03-20T13:58:19.957Z,3.80
2018-03-20T14:00:45.955Z,3.80
2018-03-20T14:03:12.059Z,6.27
2018-03-20T14:05:38.089Z,5.77
2018-03-20T14:08:04.909Z,5.27
2018-03-20T14:10:30.946Z,3.47
2018-03-20T14:12:57.714Z,5.60
2018-03-20T14:15:23.762Z,3.23
2018-03-20T14:17:50.499Z,10.17
2018-03-20T14:20:16.533Z,5.80
2018-03-20T14:22:42.576Z,2.83
2018-03-20T14:25:08.592Z,3.80
2018-03-20T14:27:34.606Z,4.90
2018-03-20T14:30:00.628Z,7.63
2018-03-20T14:32:26.632Z,3.10
2018-03-20T14:34:53.264Z,2.70
2018-03-20T14:37:19.314Z,3.90
2018-03-20T14:39:46.129Z,4.40
2018-03-20T14:42:12.137Z,7.10
2018-03-20T14:44:38.582Z,5.37
2018-03-20T14:47:04.652Z,6.03
2018-03-20T14:49:30.663Z,3.73
2018-03-20T14:51:56.785Z,9.10
2018-03-20T14:54:22.806Z,5.07
2018-03-20T14:56:49.550Z,5.60
2018-03-20T14:59:16.330Z,5.40
2018-03-20T15:01:42.334Z,8.60
2018-03-20T15:04:10.078Z,5.10
2018-03-20T15:06:36.223Z,4.03
2018-03-20T15:09:02.288Z,7.60
2018-03-20T15:11:29.096Z,3.20
2018-03-20T15:13:55.169Z,5.50
2018-03-20T15:16:21.177Z,3.97
2018-03-20T15:18:47.188Z,4.07
2018-03-20T15:21:13.235Z,6.40
2018-03-20T15:23:39.257Z,2.73
2018-03-20T15:26:05.587Z,6.40
2018-03-20T15:28:31.917Z,4.07
2018-03-20T15:30:58.704Z,4.40
2018-03-20T15:33:24.756Z,6.43
2018-03-20T15:35:50.768Z,3.07
2018-03-20T15:38:16.798Z,5.70
2018-03-20T15:40:43.645Z,5.90
2018-03-20T15:43:10.422Z,7.83
2018-03-20T15:45:36.430Z,3.23
2018-03-20T15:48:02.535Z,4.97
2018-03-20T15:50:28.626Z,4.77
2018-03-20T15:52:54.709Z,7.10
2018-03-20T15:55:21.411Z,10.27
2018-03-20T15:57:48.203Z,5.37
2018-03-20T16:00:15.526Z,5.00
2018-03-20T16:02:42.271Z,3.90
2018-03-20T16:05:08.327Z,5.47
2018-03-20T16:07:34.944Z,3.47
2018-03-20T16:10:00.968Z,3.23
2018-03-20T16:12:26.974Z,7.60
2018-03-20T16:14:52.995Z,5.13
2018-03-20T16:17:19.021Z,4.67
2018-03-20T16:19:45.057Z,7.87
2018-03-20T16:22:11.863Z,4.07
2018-03-20T16:24:37.880Z,10.20
2018-03-20T16:27:03.950Z,6.60
2018-03-20T16:29:30.090Z,5.67
2018-03-20T16:31:56.072Z,5.67
2018-03-20T16:34:22.090Z,5.43
2018-03-20T16:36:48.921Z,5.73
2018-03-20T16:39:14.942Z,3.43
2018-03-20T16:41:40.968Z,9.20
2018-03-20T16:44:07.024Z,3.27
2018-03-20T16:46:33.229Z,3.83
2018-03-20T16:48:59.314Z,4.70
2018-03-20T16:51:25.375Z,6.17
2018-03-20T16:53:51.400Z,5.83
2018-03-20T16:56:18.426Z,5.90
2018-03-20T16:58:45.293Z,4.03
2018-03-20T17:01:11.408Z,6.77
2018-03-20T17:03:37.433Z,7.23
2018-03-20T17:06:03.492Z,4.47
2018-03-20T17:08:29.665Z,9.23
2018-03-20T17:10:56.463Z,5.70
2018-03-20T17:13:22.518Z,6.67
2018-03-20T17:15:48.511Z,4.20
2018-03-20T17:18:14.587Z,5.53
2018-03-20T17:20:40.870Z,5.50
2018-03-20T17:23:07.647Z,4.73
2018-03-20T17:25:34.132Z,5.20
2018-03-20T17:28:00.196Z,7.13
2018-03-20T17:30:26.273Z,5.60
2018-03-20T17:32:53.241Z,8.43
2018-03-20T17:35:19.288Z,4.13
2018-03-20T17:37:46.077Z,6.47
2018-03-20T17:40:12.127Z,7.80
2018-03-20T17:42:38.208Z,8.10
2018-03-20T17:45:04.266Z,6.53
2018-03-20T17:47:30.337Z,6.23
2018-03-20T17:49:56.418Z,14.70
2018-03-20T17:52:22.739Z,5.03
2018-03-20T17:54:49.638Z,10.60
2018-03-20T17:57:15.666Z,14.10
2018-03-20T17:59:41.762Z,5.07
2018-03-20T18:02:08.591Z,5.17
2018-03-20T18:04:34.616Z,5.93
2018-03-20T18:07:00.659Z,5.30
2018-03-20T18:09:26.695Z,4.63
2018-03-20T18:11:52.772Z,4.07
2018-03-20T18:14:19.551Z,4.50
2018-03-20T18:16:45.630Z,3.83
2018-03-20T18:19:11.644Z,5.37
2018-03-20T18:21:37.811Z,7.10
2018-03-20T18:24:03.908Z,5.63
2018-03-20T18:26:29.929Z,8.20
2018-03-20T18:28:55.940Z,8.10
2018-03-20T18:31:22.771Z,3.90
2018-03-20T18:33:48.827Z,8.33
2018-03-20T18:36:14.871Z,6.40
2018-03-20T18:38:41.659Z,6.90
2018-03-20T18:41:07.784Z,6.40
2018-03-20T18:43:33.850Z,10.67
2018-03-20T18:46:00.617Z,7.20
2018-03-20T18:48:26.651Z,11.77
2018-03-20T18:50:52.722Z,7.20
2018-03-20T18:53:19.921Z,7.50
2018-03-20T18:55:45.936Z,7.57
2018-03-20T18:58:12.776Z,6.50
2018-03-20T19:00:38.799Z,13.63
2018-03-20T19:03:04.905Z,8.90
2018-03-20T19:05:30.952Z,6.80
2018-03-20T19:07:56.966Z,10.10
2018-03-20T19:10:23.488Z,7.40
2018-03-20T19:12:49.523Z,7.80
2018-03-20T19:15:15.544Z,7.90
2018-03-20T19:17:42.639Z,11.60
2018-03-20T19:20:08.667Z,16.17
2018-03-20T19:22:34.849Z,7.23
2018-03-20T19:25:01.031Z,5.33
2018-03-20T19:27:29.114Z,5.97
2018-03-20T19:29:55.882Z,6.57
2018-03-20T19:32:21.960Z,6.33
2018-03-20T19:34:48.595Z,9.60
2018-03-20T19:37:14.657Z,15.70
2018-03-20T19:39:40.677Z,12.00
2018-03-20T19:42:06.739Z,10.40
2018-03-20T19:44:32.767Z,12.03
2018-03-20T19:46:58.791Z,16.67
2018-03-20T19:49:24.872Z,7.53
2018-03-20T19:51:56.875Z,12.57
2018-03-20T19:54:22.985Z,12.20
2018-03-20T19:56:49.164Z,16.47
2018-03-20T19:59:15.212Z,20.93
2018-03-20T20:01:41.240Z,14.20
2018-03-20T20:04:07.413Z,14.57
2018-03-20T20:06:33.495Z,8.97
2018-03-20T20:08:59.586Z,21.83
2018-03-20T20:11:25.672Z,22.17
2018-03-20T20:13:51.720Z,21.30
2018-03-20T20:16:24.816Z,24.80
2018-03-20T20:18:52.936Z,24.50
2018-03-20T20:21:18.981Z,12.10
2018-03-20T20:23:45.077Z,14.40
2018-03-20T20:26:11.203Z,18.70
2018-03-20T20:28:37.962Z,19.50
2018-03-20T20:31:04.496Z,15.37
2018-03-20T20:33:31.294Z,39.70
2018-03-20T20:35:57.360Z,45.00
2018-03-20T20:38:23.382Z,18.63
2018-03-20T20:40:49.469Z,18.23
2018-03-20T20:43:16.226Z,21.77
2018-03-20T20:45:42.228Z,13.57
2018-03-20T20:48:08.263Z,35.97
2018-03-20T20:50:34.368Z,55.83
2018-03-20T20:53:00.419Z,43.23
2018-03-20T20:55:26.474Z,34.10
2018-03-20T20:57:52.467Z,12.17
2018-03-20T21:00:19.487Z,14.40
2018-03-20T21:02:45.513Z,13.23
2018-03-20T21:05:11.547Z,10.43
2018-03-20T21:07:37.570Z,7.30
2018-03-20T21:10:04.002Z,8.73
2018-03-20T21:12:30.054Z,10.90
2018-03-20T21:14:56.238Z,10.60
2018-03-20T21:17:23.044Z,8.57
2018-03-20T21:19:49.133Z,6.17
2018-03-20T21:22:15.183Z,9.63
2018-03-20T21:24:41.211Z,9.30
2018-03-20T21:27:07.224Z,10.57
2018-03-20T21:29:34.378Z,8.33
2018-03-20T21:32:00.493Z,13.30
2018-03-20T21:34:26.513Z,10.87
2018-03-20T21:36:52.619Z,10.73
2018-03-20T21:39:18.760Z,9.43
2018-03-20T21:41:44.784Z,15.23
2018-03-20T21:44:11.576Z,10.27
2018-03-20T21:46:37.728Z,9.00
2018-03-20T21:49:03.811Z,9.53
2018-03-20T21:51:30.955Z,5.20
2018-03-20T21:53:57.692Z,8.03
2018-03-20T21:56:23.768Z,10.47
2018-03-20T21:58:50.558Z,9.07
2018-03-20T22:01:16.582Z,9.13
2018-03-20T22:03:43.351Z,10.93
2018-03-20T22:06:09.500Z,10.10
2018-03-20T22:08:39.943Z,7.80
2018-03-20T22:11:06.015Z,11.70
2018-03-20T22:13:32.197Z,7.50
2018-03-20T22:15:59.291Z,22.93
2018-03-20T22:18:25.695Z,10.77
2018-03-20T22:20:51.750Z,12.20
2018-03-20T22:23:18.493Z,7.57
2018-03-20T22:25:46.709Z,6.93
2018-03-20T22:28:12.733Z,16.40
2018-03-20T22:30:39.515Z,8.70
2018-03-20T22:33:05.821Z,8.30
2018-03-20T22:35:32.195Z,9.70
2018-03-20T22:37:58.343Z,15.27
2018-03-20T22:40:24.359Z,9.50
2018-03-20T22:42:50.371Z,11.07
2018-03-20T22:45:16.422Z,10.60
2018-03-20T22:47:43.223Z,9.27
2018-03-20T22:50:09.276Z,8.53
2018-03-20T22:52:35.384Z,10.53
2018-03-20T22:55:01.543Z,17.03
2018-03-20T22:57:27.567Z,9.97
2018-03-20T22:59:53.789Z,13.10
2018-03-20T23:02:20.559Z,9.20
2018-03-20T23:04:46.569Z,11.47
2018-03-20T23:07:13.328Z,11.17
2018-03-20T23:09:40.354Z,12.07
2018-03-20T23:12:06.620Z,11.33
2018-03-20T23:14:33.492Z,11.40
2018-03-20T23:17:00.250Z,10.97
2018-03-20T23:19:27.295Z,12.77
2018-03-20T23:21:54.047Z,9.63
2018-03-20T23:24:20.875Z,10.50
2018-03-20T23:26:46.901Z,9.50
2018-03-20T23:29:12.971Z,15.50
2018-03-20T23:31:39.945Z,13.47
2018-03-20T23:34:06.706Z,11.43
2018-03-20T23:36:32.929Z,12.00
2018-03-20T23:38:59.680Z,14.50
2018-03-20T23:41:26.448Z,9.27
2018-03-20T23:43:52.471Z,11.33
2018-03-20T23:46:19.277Z,14.07
2018-03-20T23:48:45.371Z,9.93
2018-03-20T23:51:12.136Z,13.40
2018-03-20T23:53:38.178Z,8.60
2018-03-20T23:56:04.318Z,13.63
2018-03-20T23:58:30.368Z,8.67
